気象予報士の航空気象 霧発生。

*All archives   *Admin

2015.11.18 (Wed)

霧発生。

RJAA 170600Z 22004KT 9999 FEW020 SCT150 BKN180 22/15 Q1016 NOSIG RMK 1CU020 3AC150 6AC180 A3000

昨日は暖かい日でした。

RJAA 171030Z 19004KT 160V220 9999 -RA FEW020 SCT100 BKN120 19/17 Q1017 NOSIG RMK 1CU020 3AC100 7AS120 A3004

夜、雨が降りました。

RJAA 171200Z 19003KT 9999 -RA FEW015 SCT090 OVC120 19/17 Q1017 BECMG TL1300 27005KT TEMPO FM1300 4000 -RA BR RMK 1CU015 3AC090 8AS120 A3004

風向きが変わり始めます。

RJAA 171427Z 30003KT 270V330 2000 R34L/P1800N R34R/P1800N -RA BR FEW001 BKN003 OVC100 17/16 Q1018 RMK 2ST001 5ST003 8AS100 A3006

弱い北西成分の風、印旛沼の影響でもやとなる。

RJAA 172000Z 33003KT 1500 R34L/1800D R34R/0600VP1800D BCFG BR FEW001 SCT/// 15/14 Q1017 NOSIG RMK 2ST001 A3005 FG ON RWY34R AND RWY16R AND RWY16L

明け方、霧の発生。

RJAA 172100Z 26002KT 0100 R16R/0300N R16L/0300V0450U FG FEW000 BKN/// 14/14 Q1017 BECMG FM2230 6000 NSW RMK 2ST000 A3005
RJAA 172117Z 00000KT 0800 R16R/0300VP1800U R16L/0250N FG FEW000 BKN/// 14/14 Q1017 RMK 1ST000 A3005

凪、夜明け前の気温低下もあり、何も見えない。

RJAA 172200Z 36006KT 1200 R16R/0650VP1800U R16L/0300V0450N BCFG BR FEW000 BKN/// 14/14 Q1018 BECMG 6000 NSW

日の出、接地層に対流が生まれ、徐々に回復。

RJAA 180000Z 36006KT 4000 BR FEW030 BKN/// 16/15 Q1019 BECMG 6000 NSW RMK 1CU030 A3009

回復傾向。

RJAA 180200Z 04012KT 9999 FEW010 SCT018 BKN/// 19/16 Q1018 NOSIG

天候回復。


スポンサーサイト
11:18  |  時事  |  TB(0)  |  CM(0)  |  EDIT  |  Top↑

コメントを投稿する


 管理者だけに表示  (非公開コメント投稿可能)

▲PageTop

この記事のトラックバックURL

→http://weathereucalyptus.blog115.fc2.com/tb.php/692-4e08a025
この記事にトラックバックする(FC2ブログユーザー)

この記事へのトラックバック

▲PageTop

 | BLOGTOP |